sensor_id;sensor_type;location;lat;lon;timestamp;temperature;humidity
23347;DHT22;36852;45.466;11.066;2024-01-30T00:00:17;0.20;99.90
23347;DHT22;36852;45.466;11.066;2024-01-30T00:06:55;0.20;99.90
23347;DHT22;36852;45.466;11.066;2024-01-30T00:09:47;0.20;99.90
23347;DHT22;36852;45.466;11.066;2024-01-30T00:12:36;0.20;99.90
23347;DHT22;36852;45.466;11.066;2024-01-30T00:15:20;0.10;99.90
23347;DHT22;36852;45.466;11.066;2024-01-30T00:17:47;0.10;99.90
23347;DHT22;36852;45.466;11.066;2024-01-30T00:20:44;0.10;99.90
23347;DHT22;36852;45.466;11.066;2024-01-30T00:23:37;0.10;99.90
23347;DHT22;36852;45.466;11.066;2024-01-30T00:26:05;0.10;99.90
23347;DHT22;36852;45.466;11.066;2024-01-30T00:28:38;0.00;99.90
23347;DHT22;36852;45.466;11.066;2024-01-30T00:31:28;0.00;99.90
23347;DHT22;36852;45.466;11.066;2024-01-30T00:34:16;0.00;99.90
23347;DHT22;36852;45.466;11.066;2024-01-30T00:36:48;0.00;99.90
23347;DHT22;36852;45.466;11.066;2024-01-30T00:39:38;0.10;99.90
23347;DHT22;36852;45.466;11.066;2024-01-30T00:42:10;0.10;99.90
23347;DHT22;36852;45.466;11.066;2024-01-30T00:44:47;0.10;99.90
23347;DHT22;36852;45.466;11.066;2024-01-30T00:47:45;0.00;99.90
23347;DHT22;36852;45.466;11.066;2024-01-30T00:50:19;-0.10;99.90
23347;DHT22;36852;45.466;11.066;2024-01-30T00:53:09;-0.10;99.90
23347;DHT22;36852;45.466;11.066;2024-01-30T00:55:58;-0.20;99.90
23347;DHT22;36852;45.466;11.066;2024-01-30T00:58:37;-0.20;99.90
23347;DHT22;36852;45.466;11.066;2024-01-30T01:01:30;-0.20;99.90
23347;DHT22;36852;45.466;11.066;2024-01-30T01:04:16;-0.20;99.90
23347;DHT22;36852;45.466;11.066;2024-01-30T01:07:05;-0.20;99.90
23347;DHT22;36852;45.466;11.066;2024-01-30T01:09:56;-0.20;99.90
23347;DHT22;36852;45.466;11.066;2024-01-30T01:12:45;-0.20;99.90
23347;DHT22;36852;45.466;11.066;2024-01-30T01:15:14;-0.10;99.90
23347;DHT22;36852;45.466;11.066;2024-01-30T01:17:48;-0.10;99.90
23347;DHT22;36852;45.466;11.066;2024-01-30T01:20:19;-0.20;99.90
23347;DHT22;36852;45.466;11.066;2024-01-30T01:23:16;-0.20;99.90
23347;DHT22;36852;45.466;11.066;2024-01-30T01:26:07;-0.30;99.90
23347;DHT22;36852;45.466;11.066;2024-01-30T01:28:41;-0.30;99.90
23347;DHT22;36852;45.466;11.066;2024-01-30T01:31:34;-0.40;99.90
23347;DHT22;36852;45.466;11.066;2024-01-30T01:34:21;-0.40;99.90
23347;DHT22;36852;45.466;11.066;2024-01-30T01:37:11;-0.40;99.90
23347;DHT22;36852;45.466;11.066;2024-01-30T01:40:02;-0.40;99.90
23347;DHT22;36852;45.466;11.066;2024-01-30T01:42:36;-0.40;99.90
23347;DHT22;36852;45.466;11.066;2024-01-30T01:45:06;-0.40;99.90
23347;DHT22;36852;45.466;11.066;2024-01-30T01:48:03;-0.40;99.90
23347;DHT22;36852;45.466;11.066;2024-01-30T01:50:53;-0.40;99.90
23347;DHT22;36852;45.466;11.066;2024-01-30T01:53:43;-0.40;99.90
23347;DHT22;36852;45.466;11.066;2024-01-30T01:56:31;-0.50;99.90
23347;DHT22;36852;45.466;11.066;2024-01-30T01:59:20;-0.50;99.90
23347;DHT22;36852;45.466;11.066;2024-01-30T02:01:50;-0.50;99.90
23347;DHT22;36852;45.466;11.066;2024-01-30T02:04:27;-0.50;99.90
23347;DHT22;36852;45.466;11.066;2024-01-30T02:07:19;-0.50;99.90
23347;DHT22;36852;45.466;11.066;2024-01-30T02:10:09;-0.50;99.90
23347;DHT22;36852;45.466;11.066;2024-01-30T02:12:42;-0.60;99.90
23347;DHT22;36852;45.466;11.066;2024-01-30T02:15:33;-0.60;99.90
23347;DHT22;36852;45.466;11.066;2024-01-30T02:18:04;-0.70;99.90
23347;DHT22;36852;45.466;11.066;2024-01-30T02:20:58;-0.80;99.90
23347;DHT22;36852;45.466;11.066;2024-01-30T02:23:31;-0.90;99.90
23347;DHT22;36852;45.466;11.066;2024-01-30T02:26:19;-0.90;99.90
23347;DHT22;36852;45.466;11.066;2024-01-30T02:28:48;-1.00;99.90
23347;DHT22;36852;45.466;11.066;2024-01-30T02:31:18;-1.00;99.90
23347;DHT22;36852;45.466;11.066;2024-01-30T02:33:47;-1.00;99.90
23347;DHT22;36852;45.466;11.066;2024-01-30T02:36:15;-1.10;99.90
23347;DHT22;36852;45.466;11.066;2024-01-30T02:38:51;-1.10;99.90
23347;DHT22;36852;45.466;11.066;2024-01-30T02:41:41;-1.20;99.90
23347;DHT22;36852;45.466;11.066;2024-01-30T02:44:12;-1.20;99.90
23347;DHT22;36852;45.466;11.066;2024-01-30T02:46:48;-1.20;99.90
23347;DHT22;36852;45.466;11.066;2024-01-30T02:49:46;-1.20;99.90
23347;DHT22;36852;45.466;11.066;2024-01-30T02:52:26;-1.10;99.90
23347;DHT22;36852;45.466;11.066;2024-01-30T02:55:15;-1.10;99.90
23347;DHT22;36852;45.466;11.066;2024-01-30T02:57:45;-1.10;99.90
23347;DHT22;36852;45.466;11.066;2024-01-30T03:00:25;-1.10;99.90
23347;DHT22;36852;45.466;11.066;2024-01-30T03:03:24;-1.20;99.90
23347;DHT22;36852;45.466;11.066;2024-01-30T03:06:10;-1.10;99.90
23347;DHT22;36852;45.466;11.066;2024-01-30T03:08:39;-1.10;99.90
23347;DHT22;36852;45.466;11.066;2024-01-30T03:11:10;-1.10;99.90
23347;DHT22;36852;45.466;11.066;2024-01-30T03:13:59;-1.10;99.90
23347;DHT22;36852;45.466;11.066;2024-01-30T03:16:49;-1.10;99.90
23347;DHT22;36852;45.466;11.066;2024-01-30T03:19:36;-1.10;99.90
23347;DHT22;36852;45.466;11.066;2024-01-30T03:22:08;-1.10;99.90
23347;DHT22;36852;45.466;11.066;2024-01-30T03:24:41;-1.10;99.90
23347;DHT22;36852;45.466;11.066;2024-01-30T03:27:10;-1.10;99.90
23347;DHT22;36852;45.466;11.066;2024-01-30T03:29:41;-1.10;99.90
23347;DHT22;36852;45.466;11.066;2024-01-30T03:32:34;-1.20;99.90
23347;DHT22;36852;45.466;11.066;2024-01-30T03:35:22;-1.20;99.90
23347;DHT22;36852;45.466;11.066;2024-01-30T03:37:50;-1.20;99.90
23347;DHT22;36852;45.466;11.066;2024-01-30T03:40:37;-1.30;99.90
23347;DHT22;36852;45.466;11.066;2024-01-30T03:43:27;-1.30;99.90
23347;DHT22;36852;45.466;11.066;2024-01-30T03:45:59;-1.30;99.90
23347;DHT22;36852;45.466;11.066;2024-01-30T03:48:28;-1.30;99.90
23347;DHT22;36852;45.466;11.066;2024-01-30T03:51:14;-1.30;99.90
23347;DHT22;36852;45.466;11.066;2024-01-30T03:53:43;-1.40;99.90
23347;DHT22;36852;45.466;11.066;2024-01-30T03:56:38;-1.40;99.90
23347;DHT22;36852;45.466;11.066;2024-01-30T03:59:07;-1.30;99.90
23347;DHT22;36852;45.466;11.066;2024-01-30T04:01:37;-1.20;99.90
23347;DHT22;36852;45.466;11.066;2024-01-30T04:04:28;-1.30;99.90
23347;DHT22;36852;45.466;11.066;2024-01-30T04:07:00;-1.30;99.90
23347;DHT22;36852;45.466;11.066;2024-01-30T04:09:32;-1.30;99.90
23347;DHT22;36852;45.466;11.066;2024-01-30T04:12:24;-1.30;99.90
23347;DHT22;36852;45.466;11.066;2024-01-30T04:14:54;-1.20;99.90
23347;DHT22;36852;45.466;11.066;2024-01-30T04:17:44;-1.30;99.90
23347;DHT22;36852;45.466;11.066;2024-01-30T04:20:39;-1.30;99.90
23347;DHT22;36852;45.466;11.066;2024-01-30T04:23:28;-1.30;99.90
23347;DHT22;36852;45.466;11.066;2024-01-30T04:26:22;-1.30;99.90
23347;DHT22;36852;45.466;11.066;2024-01-30T04:29:14;-1.30;99.90
23347;DHT22;36852;45.466;11.066;2024-01-30T04:31:42;-1.20;99.90
23347;DHT22;36852;45.466;11.066;2024-01-30T04:34:10;-1.30;99.90
23347;DHT22;36852;45.466;11.066;2024-01-30T04:37:01;-1.30;99.90
23347;DHT22;36852;45.466;11.066;2024-01-30T04:39:53;-1.40;99.90
23347;DHT22;36852;45.466;11.066;2024-01-30T04:42:48;-1.40;99.90
23347;DHT22;36852;45.466;11.066;2024-01-30T04:45:42;-1.50;99.90
23347;DHT22;36852;45.466;11.066;2024-01-30T04:48:38;-1.60;99.90
23347;DHT22;36852;45.466;11.066;2024-01-30T04:51:10;-1.60;99.90
23347;DHT22;36852;45.466;11.066;2024-01-30T04:53:41;-1.50;99.90
23347;DHT22;36852;45.466;11.066;2024-01-30T04:56:34;-1.60;99.90
23347;DHT22;36852;45.466;11.066;2024-01-30T04:59:22;-1.60;99.90
23347;DHT22;36852;45.466;11.066;2024-01-30T05:02:04;-1.60;99.90
23347;DHT22;36852;45.466;11.066;2024-01-30T05:04:58;-1.60;99.90
23347;DHT22;36852;45.466;11.066;2024-01-30T05:07:49;-1.50;99.90
23347;DHT22;36852;45.466;11.066;2024-01-30T05:10:17;-1.50;99.90
23347;DHT22;36852;45.466;11.066;2024-01-30T05:12:45;-1.50;99.90
23347;DHT22;36852;45.466;11.066;2024-01-30T05:15:14;-1.50;99.90
23347;DHT22;36852;45.466;11.066;2024-01-30T05:17:46;-1.50;99.90
23347;DHT22;36852;45.466;11.066;2024-01-30T05:20:27;-1.50;99.90
23347;DHT22;36852;45.466;11.066;2024-01-30T05:23:24;-1.50;99.90
23347;DHT22;36852;45.466;11.066;2024-01-30T05:26:24;-1.60;99.90
23347;DHT22;36852;45.466;11.066;2024-01-30T05:29:19;-1.60;99.90
23347;DHT22;36852;45.466;11.066;2024-01-30T05:32:11;-1.60;99.90
23347;DHT22;36852;45.466;11.066;2024-01-30T05:35:16;-1.70;99.90
23347;DHT22;36852;45.466;11.066;2024-01-30T05:37:45;-1.70;99.90
23347;DHT22;36852;45.466;11.066;2024-01-30T05:40:21;-1.80;99.90
23347;DHT22;36852;45.466;11.066;2024-01-30T05:43:14;-1.70;99.90
23347;DHT22;36852;45.466;11.066;2024-01-30T05:45:48;-1.70;99.90
23347;DHT22;36852;45.466;11.066;2024-01-30T05:48:25;-1.70;99.90
23347;DHT22;36852;45.466;11.066;2024-01-30T05:51:28;-1.70;99.90
23347;DHT22;36852;45.466;11.066;2024-01-30T05:53:56;-1.70;99.90
23347;DHT22;36852;45.466;11.066;2024-01-30T05:56:49;-1.70;99.90
23347;DHT22;36852;45.466;11.066;2024-01-30T05:59:53;-1.70;99.90
23347;DHT22;36852;45.466;11.066;2024-01-30T06:02:26;-1.70;99.90
23347;DHT22;36852;45.466;11.066;2024-01-30T06:04:58;-1.70;99.90
23347;DHT22;36852;45.466;11.066;2024-01-30T06:07:36;-1.80;99.90
23347;DHT22;36852;45.466;11.066;2024-01-30T06:10:09;-1.80;99.90
23347;DHT22;36852;45.466;11.066;2024-01-30T06:12:37;-1.90;99.90
23347;DHT22;36852;45.466;11.066;2024-01-30T06:15:08;-1.90;99.90
23347;DHT22;36852;45.466;11.066;2024-01-30T06:17:52;-1.90;99.90
23347;DHT22;36852;45.466;11.066;2024-01-30T06:20:34;-1.90;99.90
23347;DHT22;36852;45.466;11.066;2024-01-30T06:23:03;-1.90;99.90
23347;DHT22;36852;45.466;11.066;2024-01-30T06:25:42;-1.90;99.90
23347;DHT22;36852;45.466;11.066;2024-01-30T06:28:43;-1.80;99.90
23347;DHT22;36852;45.466;11.066;2024-01-30T06:31:52;-1.90;99.90
23347;DHT22;36852;45.466;11.066;2024-01-30T06:34:34;-1.90;99.90
23347;DHT22;36852;45.466;11.066;2024-01-30T06:37:27;-2.00;99.90
23347;DHT22;36852;45.466;11.066;2024-01-30T06:40:22;-2.00;99.90
23347;DHT22;36852;45.466;11.066;2024-01-30T06:42:50;-2.10;99.90
23347;DHT22;36852;45.466;11.066;2024-01-30T06:45:26;-2.00;99.90
23347;DHT22;36852;45.466;11.066;2024-01-30T06:47:59;-1.80;99.90
23347;DHT22;36852;45.466;11.066;2024-01-30T06:50:41;-1.50;99.90
23347;DHT22;36852;45.466;11.066;2024-01-30T06:53:25;-1.30;99.90
23347;DHT22;36852;45.466;11.066;2024-01-30T06:55:54;-1.20;99.90
23347;DHT22;36852;45.466;11.066;2024-01-30T06:58:22;-1.10;99.90
23347;DHT22;36852;45.466;11.066;2024-01-30T07:00:51;-1.10;99.90
23347;DHT22;36852;45.466;11.066;2024-01-30T07:03:19;-1.20;99.90
23347;DHT22;36852;45.466;11.066;2024-01-30T07:05:48;-1.10;99.90
23347;DHT22;36852;45.466;11.066;2024-01-30T07:08:16;-1.20;99.90
23347;DHT22;36852;45.466;11.066;2024-01-30T07:10:53;-1.20;99.90
23347;DHT22;36852;45.466;11.066;2024-01-30T07:13:24;-1.20;99.90
23347;DHT22;36852;45.466;11.066;2024-01-30T07:15:52;-1.20;99.90
23347;DHT22;36852;45.466;11.066;2024-01-30T07:18:25;-1.00;99.90
23347;DHT22;36852;45.466;11.066;2024-01-30T07:21:14;-0.60;99.90
23347;DHT22;36852;45.466;11.066;2024-01-30T07:23:44;0.00;99.90
23347;DHT22;36852;45.466;11.066;2024-01-30T07:26:45;0.40;99.90
23347;DHT22;36852;45.466;11.066;2024-01-30T07:29:13;0.90;99.90
23347;DHT22;36852;45.466;11.066;2024-01-30T07:32:01;1.40;99.90
23347;DHT22;36852;45.466;11.066;2024-01-30T07:34:38;1.80;99.90
23347;DHT22;36852;45.466;11.066;2024-01-30T07:37:43;2.20;99.90
23347;DHT22;36852;45.466;11.066;2024-01-30T07:40:12;2.50;99.90
23347;DHT22;36852;45.466;11.066;2024-01-30T07:42:42;2.30;99.90
23347;DHT22;36852;45.466;11.066;2024-01-30T07:45:13;2.00;99.90
23347;DHT22;36852;45.466;11.066;2024-01-30T07:47:41;1.80;99.90
23347;DHT22;36852;45.466;11.066;2024-01-30T07:50:36;2.00;99.90
23347;DHT22;36852;45.466;11.066;2024-01-30T07:53:05;2.20;99.90
23347;DHT22;36852;45.466;11.066;2024-01-30T07:55:52;2.30;99.90
23347;DHT22;36852;45.466;11.066;2024-01-30T07:58:39;2.30;99.90
23347;DHT22;36852;45.466;11.066;2024-01-30T08:01:08;2.30;99.90
23347;DHT22;36852;45.466;11.066;2024-01-30T08:03:46;2.30;99.90
23347;DHT22;36852;45.466;11.066;2024-01-30T08:06:18;2.40;99.90
23347;DHT22;36852;45.466;11.066;2024-01-30T08:09:02;2.30;99.90
23347;DHT22;36852;45.466;11.066;2024-01-30T08:11:58;2.50;99.90
23347;DHT22;36852;45.466;11.066;2024-01-30T08:17:25;2.70;99.90
23347;DHT22;36852;45.466;11.066;2024-01-30T08:20:19;2.90;99.90
23347;DHT22;36852;45.466;11.066;2024-01-30T08:23:15;3.10;99.90
23347;DHT22;36852;45.466;11.066;2024-01-30T08:26:08;3.30;99.90
23347;DHT22;36852;45.466;11.066;2024-01-30T08:28:59;3.70;99.90
23347;DHT22;36852;45.466;11.066;2024-01-30T08:31:49;4.10;99.90
23347;DHT22;36852;45.466;11.066;2024-01-30T08:34:30;4.40;99.90
23347;DHT22;36852;45.466;11.066;2024-01-30T08:40:27;5.00;99.90
23347;DHT22;36852;45.466;11.066;2024-01-30T08:43:29;5.40;99.90
23347;DHT22;36852;45.466;11.066;2024-01-30T08:47:00;5.70;99.90
23347;DHT22;36852;45.466;11.066;2024-01-30T08:50:25;5.80;99.90
23347;DHT22;36852;45.466;11.066;2024-01-30T11:51:49;7.70;99.90
23347;DHT22;36852;45.466;11.066;2024-01-30T11:54:44;7.50;99.90
23347;DHT22;36852;45.466;11.066;2024-01-30T11:57:56;7.40;99.90
23347;DHT22;36852;45.466;11.066;2024-01-30T12:00:55;7.30;99.90
23347;DHT22;36852;45.466;11.066;2024-01-30T12:03:54;7.30;99.90
23347;DHT22;36852;45.466;11.066;2024-01-30T12:09:55;7.30;99.90
23347;DHT22;36852;45.466;11.066;2024-01-30T12:12:59;7.30;99.90
23347;DHT22;36852;45.466;11.066;2024-01-30T12:15:58;7.20;99.90
23347;DHT22;36852;45.466;11.066;2024-01-30T12:19:02;7.10;99.90
23347;DHT22;36852;45.466;11.066;2024-01-30T12:21:35;7.20;99.90
23347;DHT22;36852;45.466;11.066;2024-01-30T12:24:25;7.30;99.90
23347;DHT22;36852;45.466;11.066;2024-01-30T12:27:16;7.40;99.90
23347;DHT22;36852;45.466;11.066;2024-01-30T12:30:10;7.30;99.90
23347;DHT22;36852;45.466;11.066;2024-01-30T12:33:02;7.40;99.90
23347;DHT22;36852;45.466;11.066;2024-01-30T12:35:49;7.50;99.90
23347;DHT22;36852;45.466;11.066;2024-01-30T12:38:27;7.50;99.90
23347;DHT22;36852;45.466;11.066;2024-01-30T12:41:04;7.60;99.90
23347;DHT22;36852;45.466;11.066;2024-01-30T12:43:56;7.60;99.90
23347;DHT22;36852;45.466;11.066;2024-01-30T12:46:40;7.60;99.90
23347;DHT22;36852;45.466;11.066;2024-01-30T12:49:30;7.70;99.90
23347;DHT22;36852;45.466;11.066;2024-01-30T12:52:25;7.70;99.90
23347;DHT22;36852;45.466;11.066;2024-01-30T12:55:20;7.70;99.90
23347;DHT22;36852;45.466;11.066;2024-01-30T12:58:17;7.90;99.90
23347;DHT22;36852;45.466;11.066;2024-01-30T13:01:11;7.90;99.90
23347;DHT22;36852;45.466;11.066;2024-01-30T13:04:03;8.00;99.90
23347;DHT22;36852;45.466;11.066;2024-01-30T13:06:42;8.10;99.90
23347;DHT22;36852;45.466;11.066;2024-01-30T13:09:31;8.20;99.90
23347;DHT22;36852;45.466;11.066;2024-01-30T13:12:23;8.20;99.90
23347;DHT22;36852;45.466;11.066;2024-01-30T13:15:21;8.30;99.90
23347;DHT22;36852;45.466;11.066;2024-01-30T13:18:19;8.30;99.90
23347;DHT22;36852;45.466;11.066;2024-01-30T13:35:30;8.50;99.90
23347;DHT22;36852;45.466;11.066;2024-01-30T19:05:25;2.80;99.90
23347;DHT22;36852;45.466;11.066;2024-01-30T19:08:15;2.90;99.90
23347;DHT22;36852;45.466;11.066;2024-01-30T19:11:00;2.90;99.90
23347;DHT22;36852;45.466;11.066;2024-01-30T19:14:02;2.80;99.90
23347;DHT22;36852;45.466;11.066;2024-01-30T19:44:24;2.80;99.90
23347;DHT22;36852;45.466;11.066;2024-01-30T19:47:41;2.70;99.90
23347;DHT22;36852;45.466;11.066;2024-01-30T19:50:33;2.60;99.90
23347;DHT22;36852;45.466;11.066;2024-01-30T19:53:44;2.60;99.90
23347;DHT22;36852;45.466;11.066;2024-01-30T19:56:43;2.50;99.90
23347;DHT22;36852;45.466;11.066;2024-01-30T19:59:32;2.40;99.90
23347;DHT22;36852;45.466;11.066;2024-01-30T20:02:10;2.30;99.90
23347;DHT22;36852;45.466;11.066;2024-01-30T20:04:46;2.30;99.90
23347;DHT22;36852;45.466;11.066;2024-01-30T20:07:43;2.20;99.90
23347;DHT22;36852;45.466;11.066;2024-01-30T20:10:30;2.10;99.90
23347;DHT22;36852;45.466;11.066;2024-01-30T20:13:07;2.10;99.90
23347;DHT22;36852;45.466;11.066;2024-01-30T20:15:40;2.10;99.90
23347;DHT22;36852;45.466;11.066;2024-01-30T20:18:39;2.10;99.90
23347;DHT22;36852;45.466;11.066;2024-01-30T20:21:28;2.10;99.90
23347;DHT22;36852;45.466;11.066;2024-01-30T20:24:01;2.10;99.90
23347;DHT22;36852;45.466;11.066;2024-01-30T20:26:52;2.10;99.90
23347;DHT22;36852;45.466;11.066;2024-01-30T20:29:49;2.10;99.90
23347;DHT22;36852;45.466;11.066;2024-01-30T20:33:04;2.10;99.90
23347;DHT22;36852;45.466;11.066;2024-01-30T20:35:56;2.10;99.90
23347;DHT22;36852;45.466;11.066;2024-01-30T20:38:38;2.00;99.90
23347;DHT22;36852;45.466;11.066;2024-01-30T20:41:44;2.00;99.90
23347;DHT22;36852;45.466;11.066;2024-01-30T20:44:48;2.00;99.90
23347;DHT22;36852;45.466;11.066;2024-01-30T20:47:31;1.90;99.90
23347;DHT22;36852;45.466;11.066;2024-01-30T20:50:46;1.90;99.90
23347;DHT22;36852;45.466;11.066;2024-01-30T20:53:36;1.90;99.90
23347;DHT22;36852;45.466;11.066;2024-01-30T20:56:29;1.80;99.90
23347;DHT22;36852;45.466;11.066;2024-01-30T20:59:21;1.80;99.90
23347;DHT22;36852;45.466;11.066;2024-01-30T21:02:16;1.80;99.90
23347;DHT22;36852;45.466;11.066;2024-01-30T21:05:12;1.80;99.90
23347;DHT22;36852;45.466;11.066;2024-01-30T21:08:08;1.80;99.90
23347;DHT22;36852;45.466;11.066;2024-01-30T21:11:05;1.70;99.90
23347;DHT22;36852;45.466;11.066;2024-01-30T21:14:11;1.60;99.90
23347;DHT22;36852;45.466;11.066;2024-01-30T21:17:09;1.60;99.90
23347;DHT22;36852;45.466;11.066;2024-01-30T21:20:05;1.70;99.90
23347;DHT22;36852;45.466;11.066;2024-01-30T21:22:59;1.80;99.90
23347;DHT22;36852;45.466;11.066;2024-01-30T21:25:51;1.80;99.90
23347;DHT22;36852;45.466;11.066;2024-01-30T21:28:41;1.80;99.90
23347;DHT22;36852;45.466;11.066;2024-01-30T21:31:29;1.80;99.90
23347;DHT22;36852;45.466;11.066;2024-01-30T21:34:26;1.80;99.90
23347;DHT22;36852;45.466;11.066;2024-01-30T21:37:20;1.80;99.90
23347;DHT22;36852;45.466;11.066;2024-01-30T21:40:23;1.80;99.90
23347;DHT22;36852;45.466;11.066;2024-01-30T21:43:23;1.80;99.90
23347;DHT22;36852;45.466;11.066;2024-01-30T21:46:30;1.80;99.90
23347;DHT22;36852;45.466;11.066;2024-01-30T21:49:32;2.00;99.90
23347;DHT22;36852;45.466;11.066;2024-01-30T21:52:24;2.00;99.90
23347;DHT22;36852;45.466;11.066;2024-01-30T21:54:58;2.00;99.90
23347;DHT22;36852;45.466;11.066;2024-01-30T21:58:08;2.00;99.90
23347;DHT22;36852;45.466;11.066;2024-01-30T22:00:58;2.00;99.90
23347;DHT22;36852;45.466;11.066;2024-01-30T22:03:46;2.10;99.90
23347;DHT22;36852;45.466;11.066;2024-01-30T22:06:42;2.10;99.90
23347;DHT22;36852;45.466;11.066;2024-01-30T22:09:30;2.10;99.90
23347;DHT22;36852;45.466;11.066;2024-01-30T22:12:21;2.10;99.90
23347;DHT22;36852;45.466;11.066;2024-01-30T22:14:51;2.00;99.90
23347;DHT22;36852;45.466;11.066;2024-01-30T22:17:50;1.90;99.90
23347;DHT22;36852;45.466;11.066;2024-01-30T22:20:27;1.90;99.90
23347;DHT22;36852;45.466;11.066;2024-01-30T22:22:55;1.80;99.90
23347;DHT22;36852;45.466;11.066;2024-01-30T22:25:26;1.80;99.90
23347;DHT22;36852;45.466;11.066;2024-01-30T22:27:54;1.80;99.90
23347;DHT22;36852;45.466;11.066;2024-01-30T22:30:22;1.70;99.90
23347;DHT22;36852;45.466;11.066;2024-01-30T22:32:50;1.80;99.90
23347;DHT22;36852;45.466;11.066;2024-01-30T22:35:41;1.70;99.90
23347;DHT22;36852;45.466;11.066;2024-01-30T22:38:09;1.70;99.90
23347;DHT22;36852;45.466;11.066;2024-01-30T22:40:59;1.70;99.90
23347;DHT22;36852;45.466;11.066;2024-01-30T22:43:48;1.70;99.90
23347;DHT22;36852;45.466;11.066;2024-01-30T22:46:23;1.70;99.90
23347;DHT22;36852;45.466;11.066;2024-01-30T22:49:17;1.70;99.90
23347;DHT22;36852;45.466;11.066;2024-01-30T22:51:47;1.70;99.90
23347;DHT22;36852;45.466;11.066;2024-01-30T22:54:22;1.70;99.90
23347;DHT22;36852;45.466;11.066;2024-01-30T22:57:13;1.50;99.90
23347;DHT22;36852;45.466;11.066;2024-01-30T23:00:05;1.40;99.90
23347;DHT22;36852;45.466;11.066;2024-01-30T23:02:44;1.50;99.90
23347;DHT22;36852;45.466;11.066;2024-01-30T23:05:12;1.60;99.90
23347;DHT22;36852;45.466;11.066;2024-01-30T23:07:42;1.80;99.90
23347;DHT22;36852;45.466;11.066;2024-01-30T23:10:11;1.80;99.90
23347;DHT22;36852;45.466;11.066;2024-01-30T23:12:41;1.70;99.90
23347;DHT22;36852;45.466;11.066;2024-01-30T23:15:13;1.80;99.90
23347;DHT22;36852;45.466;11.066;2024-01-30T23:17:47;1.70;99.90
23347;DHT22;36852;45.466;11.066;2024-01-30T23:20:35;1.70;99.90
23347;DHT22;36852;45.466;11.066;2024-01-30T23:23:06;1.60;99.90
23347;DHT22;36852;45.466;11.066;2024-01-30T23:25:57;1.60;99.90
23347;DHT22;36852;45.466;11.066;2024-01-30T23:28:43;1.70;99.90
23347;DHT22;36852;45.466;11.066;2024-01-30T23:31:12;1.70;99.90
23347;DHT22;36852;45.466;11.066;2024-01-30T23:33:41;1.70;99.90
23347;DHT22;36852;45.466;11.066;2024-01-30T23:36:09;1.70;99.90
23347;DHT22;36852;45.466;11.066;2024-01-30T23:38:37;1.60;99.90
23347;DHT22;36852;45.466;11.066;2024-01-30T23:41:06;1.60;99.90
23347;DHT22;36852;45.466;11.066;2024-01-30T23:43:34;1.70;99.90
23347;DHT22;36852;45.466;11.066;2024-01-30T23:46:02;1.70;99.90
23347;DHT22;36852;45.466;11.066;2024-01-30T23:48:31;1.60;99.90
23347;DHT22;36852;45.466;11.066;2024-01-30T23:51:00;1.50;99.90
23347;DHT22;36852;45.466;11.066;2024-01-30T23:53:28;1.50;99.90
23347;DHT22;36852;45.466;11.066;2024-01-30T23:55:57;1.50;99.90
23347;DHT22;36852;45.466;11.066;2024-01-30T23:58:26;1.50;99.90
